Time;durP1;ratioP1;P1;durP2;ratioP2;P2;SDS_P1;SDS_P2;PMS_P1;PMS_P2;Temp;Humidity;BMP_temperature;BMP_pressure;BME280_temperature;BME280_humidity;BME280_pressure;Samples;Min_cycle;Max_cycle;Signal;HPM_P1;HPM_P2
2021/04/16 00:01:17;;;;;;;;;;;;;;;4.45;66.43;96439.91;1641462;85;21349;-51
2021/04/16 00:03:50;;;;;;;12.50;7.45;;;;;;;4.42;66.40;96432.34;1686759;83;20564;-52
2021/04/16 00:06:19;;;;;;;12.50;7.78;;;;;;;4.38;66.48;96437.27;1688888;84;21229;-52
2021/04/16 00:08:47;;;;;;;12.23;6.90;;;;;;;4.34;66.65;96428.89;1665649;85;21863;-51
2021/04/16 00:11:24;;;;;;;13.38;6.92;;;;;;;4.32;66.73;96428.11;1690846;83;21252;-52
2021/04/16 00:13:53;;;;;;;10.38;6.83;;;;;;;4.30;66.81;96423.50;1666728;84;21256;-52
2021/04/16 00:16:25;;;;;;;11.57;6.72;;;;;;;4.28;66.91;96421.93;1671841;84;21213;-54
2021/04/16 00:18:55;;;;;;;12.03;7.47;;;;;;;4.28;67.08;96420.65;1670091;84;21613;-54
2021/04/16 00:21:27;;;;;;;13.20;8.48;;;;;;;4.29;67.26;96419.26;1668834;84;21118;-52
2021/04/16 00:23:55;;;;;;;13.45;7.75;;;;;;;4.28;67.46;96416.33;1726722;81;21121;-52
2021/04/16 00:26:26;;;;;;;14.00;7.90;;;;;;;4.27;67.58;96408.70;1748492;81;21076;-53
2021/04/16 00:28:55;;;;;;;12.40;7.70;;;;;;;4.24;67.63;96418.66;1757253;80;21637;-53
2021/04/16 00:31:27;;;;;;;11.37;8.27;;;;;;;4.21;67.73;96411.09;1757662;80;21061;-54
2021/04/16 00:33:56;;;;;;;13.83;7.83;;;;;;;4.21;67.71;96417.52;1730305;81;21068;-52
2021/04/16 00:36:23;;;;;;;13.60;7.90;;;;;;;4.19;67.74;96415.47;1755546;80;21100;-53
2021/04/16 00:38:52;;;;;;;15.43;9.03;;;;;;;4.17;67.82;96410.41;1754714;81;21196;-53
2021/04/16 00:41:25;;;;;;;14.07;8.28;;;;;;;4.19;67.96;96407.77;1751772;80;21188;-60
2021/04/16 00:43:54;;;;;;;14.53;10.38;;;;;;;4.22;67.93;96404.59;1727294;81;21176;-53
2021/04/16 00:47:00;;;;;;;18.85;10.88;;;;;;;4.24;67.90;96409.66;1758809;80;21167;-54
2021/04/16 00:49:32;;;;;;;19.37;11.22;;;;;;;4.26;67.96;96404.45;1755391;81;21560;-52
2021/04/16 00:52:03;;;;;;;18.17;11.12;;;;;;;4.24;67.97;96404.09;1726660;81;21555;-53
2021/04/16 00:54:37;;;;;;;17.37;10.18;;;;;;;4.25;68.12;96395.93;1723959;81;21587;-52
2021/04/16 00:57:07;;;;;;;14.98;10.18;;;;;;;4.25;68.06;96395.93;1724327;81;21218;-52
2021/04/16 00:59:41;;;;;;;14.05;9.65;;;;;;;4.21;68.09;96396.97;1722299;81;21111;-52
2021/04/16 01:02:11;;;;;;;13.03;8.93;;;;;;;4.17;68.17;96389.87;1727962;81;21154;-53
2021/04/16 01:04:40;;;;;;;13.78;9.18;;;;;;;4.07;68.17;96381.41;1697129;83;21410;-52
2021/04/16 01:07:10;;;;;;;9.10;7.37;;;;;;;3.96;68.50;96384.02;1724809;81;21164;-52
2021/04/16 01:09:39;;;;;;;11.15;7.92;;;;;;;3.94;68.53;96386.30;1756881;81;21137;-52
2021/04/16 01:12:11;;;;;;;10.20;7.33;;;;;;;3.86;68.60;96378.52;1748561;80;21584;-52
2021/04/16 01:14:41;;;;;;;9.05;6.83;;;;;;;3.75;68.73;96383.31;1758005;80;21125;-52
2021/04/16 01:17:10;;;;;;;7.45;6.28;;;;;;;3.65;69.10;96379.06;1751596;80;21501;-52
2021/04/16 01:19:55;;;;;;;7.83;6.62;;;;;;;3.65;69.35;96384.62;1757677;80;21223;-52
2021/04/16 01:22:34;;;;;;;8.05;7.25;;;;;;;3.70;69.37;96375.00;1766135;80;21120;-53
2021/04/16 01:25:05;;;;;;;8.18;6.15;;;;;;;3.73;69.23;96372.73;1750488;80;21160;-52
2021/04/16 01:27:34;;;;;;;8.23;6.30;;;;;;;3.73;69.17;96375.30;1694239;83;21138;-52
2021/04/16 01:30:06;;;;;;;;;;;;;;;3.72;69.19;96374.47;1766894;80;22817;-53
2021/04/16 01:32:36;;;;;;;7.87;5.83;;;;;;;3.74;69.12;96376.97;1756374;80;20225;-51
2021/04/16 01:35:13;;;;;;;5.92;5.30;;;;;;;3.73;69.08;96374.02;1762263;80;21482;-52
2021/04/16 01:37:41;;;;;;;5.58;4.87;;;;;;;3.69;68.99;96367.73;1754134;80;21619;-53
2021/04/16 01:40:11;;;;;;;9.25;5.53;;;;;;;3.62;69.07;96368.11;1760964;80;21072;-53
2021/04/16 01:42:39;;;;;;;5.62;4.80;;;;;;;3.62;69.07;96368.11;1692073;84;22118;-52
2021/04/16 01:45:18;;;;;;;5.22;4.72;;;;;;;3.66;69.06;96365.31;1725005;83;21519;-51
2021/04/16 01:47:58;;;;;;;6.03;5.10;;;;;;;3.69;69.07;96360.03;1749323;79;21190;-53
2021/04/16 01:50:28;;;;;;;5.85;4.87;;;;;;;3.73;68.97;96361.18;1772137;79;21638;-52
2021/04/16 01:52:59;;;;;;;5.55;5.05;;;;;;;3.77;68.92;96360.15;1743013;80;21166;-52
2021/04/16 01:55:28;;;;;;;5.53;5.03;;;;;;;3.75;68.43;96359.37;1775498;79;22112;-53
2021/04/16 01:57:56;;;;;;;6.10;5.50;;;;;;;3.70;68.73;96355.76;1772500;80;21546;-53
2021/04/16 02:00:32;;;;;;;6.87;5.67;;;;;;;3.61;68.79;96357.00;1741355;81;21075;-54
2021/04/16 02:03:02;;;;;;;7.47;5.90;;;;;;;3.57;68.98;96356.77;1717045;82;21146;-52
2021/04/16 02:05:31;;;;;;;8.08;5.60;;;;;;;3.55;69.00;96359.84;1747009;81;21152;-52
2021/04/16 02:07:58;;;;;;;;;;;;;;;3.55;69.12;96351.32;1761502;80;22455;-52
2021/04/16 02:10:27;;;;;;;7.83;5.67;;;;;;;3.56;68.89;96355.56;1741711;80;20238;-54
2021/04/16 02:12:56;;;;;;;9.75;5.42;;;;;;;3.54;68.72;96350.96;1738720;80;21070;-53
2021/04/16 02:15:25;;;;;;;8.58;5.37;;;;;;;3.49;68.59;96348.60;1811857;77;21189;-53
2021/04/16 02:17:53;;;;;;;11.78;5.90;;;;;;;3.45;68.69;96347.92;1819094;77;21051;-52
2021/04/16 02:20:23;;;;;;;8.58;5.80;;;;;;;3.40;68.73;96339.58;1819160;77;21437;-51
2021/04/16 02:22:51;;;;;;;9.10;6.45;;;;;;;3.39;68.97;96338.36;1810506;77;21613;-52
2021/04/16 02:25:19;;;;;;;12.30;6.58;;;;;;;3.39;68.96;96337.08;1811051;77;21115;-52
2021/04/16 02:27:48;;;;;;;10.50;6.47;;;;;;;3.39;68.97;96335.37;1818687;77;21590;-53
2021/04/16 02:30:25;;;;;;;8.70;6.37;;;;;;;3.38;68.92;96338.00;1813356;77;21057;-52
2021/04/16 02:32:53;;;;;;;8.00;6.23;;;;;;;3.37;69.05;96338.89;1803058;77;21366;-52
2021/04/16 02:35:22;;;;;;;8.65;6.00;;;;;;;3.35;69.07;96341.52;1775938;79;21134;-52
2021/04/16 02:37:53;;;;;;;11.53;7.03;;;;;;;3.30;69.12;96334.50;1768496;79;21365;-52
2021/04/16 02:40:24;;;;;;;8.63;6.42;;;;;;;3.37;69.42;96333.77;1752482;81;21129;-53
2021/04/16 02:42:55;;;;;;;9.35;6.30;;;;;;;3.42;69.52;96336.52;1742404;82;21114;-53
2021/04/16 02:45:31;;;;;;;12.07;8.58;;;;;;;3.42;69.52;96336.52;1813914;77;21190;-53
2021/04/16 02:47:58;;;;;;;14.05;8.43;;;;;;;3.43;69.35;96333.03;1809345;78;21138;-53
2021/04/16 02:50:28;;;;;;;10.70;7.83;;;;;;;3.42;69.52;96331.38;1812745;78;21063;-53
2021/04/16 02:52:57;;;;;;;10.43;7.33;;;;;;;3.47;69.16;96338.84;1812649;77;21157;-52
2021/04/16 02:55:27;;;;;;;10.15;7.50;;;;;;;3.48;69.03;96338.77;1771606;80;21051;-52
2021/04/16 02:57:55;;;;;;;10.40;7.95;;;;;;;3.50;68.86;96331.86;1767706;79;21487;-52
2021/04/16 03:00:27;;;;;;;11.63;7.57;;;;;;;3.56;68.64;96335.04;1772773;79;21154;-53
2021/04/16 03:02:55;;;;;;;12.93;8.55;;;;;;;3.55;68.53;96335.93;1794814;79;21039;-53
2021/04/16 03:05:23;;;;;;;15.28;9.40;;;;;;;3.53;68.60;96335.17;1808875;77;21028;-53
2021/04/16 03:07:55;;;;;;;15.35;10.35;;;;;;;3.60;68.31;96326.28;1816166;77;21201;-52
2021/04/16 03:10:28;;;;;;;15.70;10.08;;;;;;;3.60;68.31;96326.28;1790025;77;22283;-53
2021/04/16 03:12:55;;;;;;;15.40;10.85;;;;;;;3.65;68.46;96330.73;1787778;79;21109;-53
2021/04/16 03:15:25;;;;;;;18.35;9.90;;;;;;;3.66;68.47;96330.67;1813694;77;21046;-54
2021/04/16 03:17:55;;;;;;;15.43;10.13;;;;;;;3.70;68.31;96333.95;1805536;78;21169;-51
2021/04/16 03:20:25;;;;;;;15.85;9.75;;;;;;;3.72;68.19;96333.84;1816753;77;21109;-52
2021/04/16 03:22:54;;;;;;;16.55;9.10;;;;;;;3.72;68.05;96332.13;1813459;77;21373;-51
2021/04/16 03:25:22;;;;;;;14.00;8.53;;;;;;;3.73;67.97;96338.09;1818513;77;21145;-54
2021/04/16 03:27:51;;;;;;;12.13;8.23;;;;;;;3.70;67.93;96336.52;1802328;77;21138;-52
2021/04/16 03:30:22;;;;;;;12.15;7.60;;;;;;;3.67;68.00;96334.91;1816447;78;21105;-52
2021/04/16 03:32:50;;;;;;;467.00;260.60;;;;;;;3.69;67.93;96334.84;1820078;77;21138;-56
2021/04/16 03:35:20;;;;;;;216.55;100.47;;;;;;;3.72;68.42;96328.28;1787650;78;21371;-52
2021/04/16 03:37:50;;;;;;;258.32;63.90;;;;;;;3.80;68.21;96333.88;1814073;77;21149;-52
2021/04/16 03:40:22;;;;;;;23.32;10.58;;;;;;;3.89;68.19;96327.93;1816626;77;21156;-53
2021/04/16 03:42:51;;;;;;;19.50;9.65;;;;;;;3.93;68.05;96323.86;1821490;77;21144;-52
2021/04/16 03:45:19;;;;;;;17.77;9.65;;;;;;;3.98;67.89;96326.19;1814776;78;21153;-53
2021/04/16 03:47:54;;;;;;;14.43;9.53;;;;;;;4.04;67.73;96329.75;1801193;77;21393;-52
2021/04/16 03:50:26;;;;;;;;;;;;;;;4.11;67.59;96326.42;1819933;77;21175;-54
2021/04/16 03:52:56;;;;;;;13.68;8.98;;;;;;;4.15;67.27;96326.66;1803877;77;20217;-51
2021/04/16 03:55:28;;;;;;;13.32;8.33;;;;;;;4.14;67.09;96324.53;1815838;77;21177;-54
2021/04/16 03:57:57;;;;;;;12.40;8.03;;;;;;;4.15;67.11;96324.92;1808315;77;21051;-53
2021/04/16 04:00:30;;;;;;;11.05;7.50;;;;;;;4.17;67.21;96328.70;1811848;78;21359;-53
2021/04/16 04:02:58;;;;;;;11.60;7.25;;;;;;;4.19;67.16;96336.72;1811181;78;21134;-52
2021/04/16 04:05:27;;;;;;;8.13;6.47;;;;;;;4.20;66.91;96338.36;1770197;79;21083;-54
2021/04/16 04:07:57;;;;;;;15.38;8.20;;;;;;;4.17;66.74;96331.27;1739797;81;21234;-53
2021/04/16 04:10:28;;;;;;;8.33;6.20;;;;;;;4.12;66.81;96326.81;1736393;82;21160;-54
2021/04/16 04:13:08;;;;;;;12.70;8.57;;;;;;;4.19;66.93;96326.45;1869705;74;24681;-53
2021/04/16 04:15:36;;;;;;;14.23;8.43;;;;;;;4.19;67.10;96332.02;1842588;75;21062;-55
2021/04/16 04:18:08;;;;;;;10.08;7.67;;;;;;;4.26;67.09;96332.54;1806772;75;21265;-53
2021/04/16 04:20:39;;;;;;;8.28;6.22;;;;;;;4.33;67.01;96335.20;1853609;76;21081;-54
2021/04/16 04:23:07;;;;;;;8.63;6.20;;;;;;;4.42;66.73;96330.44;1859852;76;21101;-52
2021/04/16 04:25:36;;;;;;;9.50;7.08;;;;;;;4.42;66.38;96330.44;1781185;79;21089;-53
2021/04/16 04:28:05;;;;;;;9.53;7.12;;;;;;;4.38;66.24;96334.05;1797539;78;21078;-53
2021/04/16 04:30:36;;;;;;;9.18;6.85;;;;;;;4.35;66.32;96330.34;1796758;78;21370;-54
2021/04/16 04:33:06;;;;;;;10.28;7.58;;;;;;;4.38;66.31;96337.91;1764111;80;21160;-51
2021/04/16 04:35:35;;;;;;;10.82;7.95;;;;;;;4.48;66.23;96335.70;1794858;78;21487;-52
2021/04/16 04:38:03;;;;;;;11.78;8.53;;;;;;;4.60;65.79;96332.97;1799041;78;21474;-53
2021/04/16 04:40:31;;;;;;;11.08;8.00;;;;;;;4.81;65.51;96331.05;1795094;78;21116;-52
2021/04/16 04:43:00;;;;;;;9.48;7.65;;;;;;;5.30;64.95;96340.04;1797206;78;21267;-52
2021/04/16 04:45:27;;;;;;;12.07;8.20;;;;;;;6.00;63.68;96331.98;1794236;78;21162;-52
2021/04/16 04:47:58;;;;;;;10.08;7.53;;;;;;;6.77;61.62;96327.52;1804218;79;21138;-52
2021/04/16 04:50:28;;;;;;;8.58;7.08;;;;;;;7.46;59.26;96320.37;1802130;79;21148;-52
2021/04/16 04:52:57;;;;;;;10.32;7.35;;;;;;;8.06;57.64;96322.58;1794810;78;21075;-52
2021/04/16 04:55:29;;;;;;;7.83;6.05;;;;;;;8.73;56.05;96319.06;1796596;78;21227;-53
2021/04/16 04:57:58;;;;;;;9.18;6.87;;;;;;;9.16;53.82;96318.74;1794535;78;21160;-52
2021/04/16 05:00:29;;;;;;;6.97;5.95;;;;;;;9.31;52.77;96323.32;1800921;78;21136;-53
2021/04/16 05:02:57;;;;;;;7.60;5.83;;;;;;;9.55;51.75;96314.75;1797316;78;21063;-53
2021/04/16 05:05:27;;;;;;;6.28;5.20;;;;;;;9.87;51.21;96312.46;1805406;78;21061;-54
2021/04/16 05:07:56;;;;;;;6.47;5.42;;;;;;;10.25;50.44;96315.31;1794424;78;22086;-53
2021/04/16 05:10:28;;;;;;;6.20;5.08;;;;;;;10.48;48.42;96313.64;1774699;79;21787;-53
2021/04/16 05:12:58;;;;;;;5.37;4.87;;;;;;;10.59;48.79;96316.75;1798953;78;21170;-52
2021/04/16 05:15:41;;;;;;;6.22;5.00;;;;;;;10.80;47.95;96316.88;1654766;85;21614;-53
2021/04/16 05:18:09;;;;;;;5.58;4.97;;;;;;;10.60;47.73;96317.08;1649114;85;21209;-53
2021/04/16 05:20:38;;;;;;;6.90;6.13;;;;;;;10.19;48.38;96319.65;1658787;85;21514;-52
2021/04/16 05:23:07;;;;;;;6.42;5.72;;;;;;;9.77;49.18;96324.43;1652149;85;21559;-53
2021/04/16 05:25:36;;;;;;;6.25;5.65;;;;;;;9.56;50.30;96322.41;1659147;84;21140;-53
2021/04/16 05:28:05;;;;;;;8.58;6.58;;;;;;;9.55;50.79;96326.41;1644651;86;21154;-52
2021/04/16 05:30:33;;;;;;;11.03;8.28;;;;;;;9.56;50.78;96326.30;1660258;86;21547;-55
2021/04/16 05:33:03;;;;;;;11.00;8.35;;;;;;;9.53;50.12;96320.03;1683626;79;21557;-56
2021/04/16 05:35:35;;;;;;;13.20;8.78;;;;;;;9.35;49.91;96326.52;1797526;79;21460;-52
2021/04/16 05:38:02;;;;;;;13.72;9.40;;;;;;;9.02;50.56;96316.27;1798480;78;21061;-53
2021/04/16 05:40:31;;;;;;;9.95;7.40;;;;;;;8.78;51.27;96315.73;1769231;78;21655;-54
2021/04/16 05:43:00;;;;;;;10.70;7.33;;;;;;;8.64;51.22;96314.05;1799637;78;21600;-52
2021/04/16 05:45:27;;;;;;;7.08;5.37;;;;;;;8.58;51.57;96319.63;1798052;78;21209;-53
2021/04/16 05:47:55;;;;;;;4.63;4.03;;;;;;;8.66;51.32;96309.59;1793806;78;21195;-53
2021/04/16 05:50:24;;;;;;;5.03;4.53;;;;;;;8.77;51.09;96317.94;1793584;78;21093;-53
2021/04/16 05:52:52;;;;;;;5.40;4.90;;;;;;;8.83;50.67;96314.09;1794375;78;21078;-52
2021/04/16 05:55:20;;;;;;;7.72;6.15;;;;;;;8.82;50.62;96312.46;1792939;78;21117;-52
2021/04/16 05:57:49;;;;;;;8.18;5.85;;;;;;;8.80;50.54;96316.45;1800654;79;21190;-52
2021/04/16 06:00:19;;;;;;;10.13;7.37;;;;;;;8.73;51.03;96311.30;1798453;78;21481;-53
2021/04/16 06:02:48;;;;;;;10.48;8.33;;;;;;;8.76;51.57;96311.58;1793573;78;21098;-54
2021/04/16 06:05:18;;;;;;;9.80;7.62;;;;;;;8.76;51.69;96304.63;1781552;80;21045;-54
2021/04/16 06:07:47;;;;;;;8.80;7.20;;;;;;;8.66;51.75;96308.30;1804761;78;21114;-53
2021/04/16 06:10:16;;;;;;;9.90;7.53;;;;;;;8.63;51.52;96302.52;1793277;79;22396;-53
2021/04/16 06:12:44;;;;;;;;;;;;;;;8.52;51.75;96302.41;1801400;78;21558;-54
2021/04/16 06:15:16;;;;;;;2.20;2.10;;;;;;;8.52;51.28;96303.70;1793863;78;20225;-53
2021/04/16 06:17:44;;;;;;;2.75;2.17;;;;;;;8.44;50.00;96299.88;1795979;78;21651;-51
2021/04/16 06:20:14;;;;;;;3.58;2.30;;;;;;;8.31;49.52;96298.19;1798904;78;21172;-53
2021/04/16 06:22:45;;;;;;;2.40;2.20;;;;;;;8.15;49.41;96303.05;1799502;79;21224;-53
2021/04/16 06:25:35;;;;;;;3.08;2.77;;;;;;;7.96;49.86;96300.01;1691048;83;21510;-53
2021/04/16 06:28:06;;;;;;;3.70;3.00;;;;;;;7.85;50.88;96302.83;1693687;83;21173;-54
2021/04/16 06:30:34;;;;;;;3.20;2.77;;;;;;;7.85;50.88;96302.83;1694227;83;21116;-53
2021/04/16 06:33:20;;;;;;;3.83;3.40;;;;;;;7.96;51.09;96302.15;1691122;83;21165;-53
2021/04/16 06:35:54;;;;;;;9.23;6.60;;;;;;;8.11;51.36;96305.49;1665689;83;21417;-53
2021/04/16 06:38:27;;;;;;;6.10;4.67;;;;;;;8.27;51.06;96305.30;1695699;83;21641;-53
2021/04/16 06:40:55;;;;;;;4.58;3.90;;;;;;;8.42;51.37;96303.45;1687669;83;21165;-54
2021/04/16 06:43:33;;;;;;;5.85;3.90;;;;;;;8.61;49.79;96302.62;1662814;84;21152;-54
2021/04/16 06:46:02;;;;;;;6.90;4.37;;;;;;;8.61;49.47;96304.39;1658762;84;21168;-53
2021/04/16 06:48:31;;;;;;;4.87;4.28;;;;;;;8.48;49.80;96300.02;1688034;83;21289;-53
2021/04/16 06:50:59;;;;;;;6.10;3.58;;;;;;;8.49;50.45;96306.04;1704586;83;21089;-53
2021/04/16 06:53:48;;;;;;;6.35;4.05;;;;;;;8.61;50.44;96302.62;1695276;83;21076;-53
2021/04/16 06:56:22;;;;;;;3.75;3.20;;;;;;;8.83;50.46;96299.42;1702745;83;21521;-54
2021/04/16 06:59:03;;;;;;;2.60;2.40;;;;;;;9.06;50.27;96303.46;1667299;84;21098;-53
2021/04/16 07:01:46;;;;;;;4.40;2.98;;;;;;;9.27;49.00;96304.22;1679003;83;21478;-53
2021/04/16 07:04:38;;;;;;;2.08;1.92;;;;;;;9.36;48.60;96301.81;1678643;83;21600;-53
2021/04/16 07:07:41;;;;;;;1.95;1.75;;;;;;;9.46;48.28;96297.30;1669527;84;21172;-52
2021/04/16 07:10:33;;;;;;;1.60;1.17;;;;;;;9.58;48.18;96294.63;1691834;83;21823;-53
2021/04/16 07:13:03;;;;;;;1.40;1.30;;;;;;;9.79;47.75;96296.64;1687435;83;21155;-53
2021/04/16 07:15:43;;;;;;;1.70;1.40;;;;;;;9.96;47.00;96298.00;1647580;84;21979;-53
2021/04/16 07:18:14;;;;;;;1.00;1.00;;;;;;;10.09;46.51;96299.23;1693659;83;21157;-54
2021/04/16 07:20:43;;;;;;;1.15;1.05;;;;;;;10.20;46.40;96298.46;1689616;83;21221;-53
2021/04/16 07:23:11;;;;;;;1.05;1.02;;;;;;;10.29;46.05;96293.88;1682395;83;21094;-53
2021/04/16 07:25:44;;;;;;;1.25;1.15;;;;;;;10.37;46.15;96292.05;1677013;84;21066;-54
2021/04/16 07:28:16;;;;;;;1.10;1.00;;;;;;;10.45;45.52;96295.71;1656333;85;21393;-53
2021/04/16 07:31:13;;;;;;;1.10;1.00;;;;;;;10.55;45.43;96299.74;1673827;84;21617;-53
2021/04/16 07:33:42;;;;;;;1.02;1.00;;;;;;;10.67;44.56;96301.88;1746768;81;21561;-53
2021/04/16 07:36:36;;;;;;;0.70;0.70;;;;;;;10.75;43.83;96303.91;1745451;81;21071;-53
2021/04/16 07:42:15;;;;;;;0.70;0.70;;;;;;;10.77;42.93;96300.27;1709351;82;21386;-52
2021/04/16 07:45:17;;;;;;;2.77;0.80;;;;;;;10.70;42.44;96300.35;1693829;82;21180;-53
2021/04/16 07:47:47;;;;;;;1.00;0.90;;;;;;;10.66;42.38;96301.06;1718256;82;21131;-53
2021/04/16 07:50:41;;;;;;;2.22;1.22;;;;;;;10.54;42.17;96299.86;1704369;82;21227;-54
2021/04/16 07:53:05;;;;;;;;;;;;;;;10.41;42.68;96300.78;1680188;83;21155;-54
2021/04/16 07:55:33;;;;;;;1.55;0.80;;;;;;;10.40;42.85;96303.02;1656652;82;23642;-53
2021/04/16 07:58:09;;;;;;;;;;;;;;;10.39;42.76;96303.94;1709517;82;21587;-55
2021/04/16 08:00:42;;;;;;;0.88;0.80;;;;;;;10.40;42.25;96298.30;1713826;82;20221;-52
2021/04/16 08:03:23;;;;;;;1.10;1.00;;;;;;;10.18;42.35;96302.91;1654835;85;21227;-52
2021/04/16 08:05:57;;;;;;;1.00;1.00;;;;;;;9.91;42.93;96308.70;1686969;83;21140;-52
2021/04/16 08:08:31;;;;;;;0.80;0.80;;;;;;;9.66;42.96;96311.41;1680819;83;21233;-53
2021/04/16 08:11:12;;;;;;;1.15;1.05;;;;;;;9.48;43.78;96309.66;1694118;83;21639;-53
2021/04/16 08:13:50;;;;;;;1.32;1.22;;;;;;;9.45;44.04;96309.87;1659342;83;21162;-52
2021/04/16 08:16:32;;;;;;;1.90;0.80;;;;;;;9.48;43.91;96304.00;1685354;83;21079;-54
2021/04/16 08:19:11;;;;;;;0.90;0.82;;;;;;;9.51;43.71;96305.08;1701632;83;21184;-52
2021/04/16 08:21:49;;;;;;;1.30;1.20;;;;;;;9.55;43.54;96304.39;1677206;83;21424;-52
2021/04/16 08:24:54;;;;;;;2.95;1.22;;;;;;;9.57;43.80;96307.69;1678958;84;21197;-53
2021/04/16 08:27:55;;;;;;;0.90;0.90;;;;;;;9.64;43.81;96309.38;1680226;84;21153;-54
2021/04/16 08:30:48;;;;;;;1.00;1.00;;;;;;;9.70;43.10;96316.72;1679693;84;21172;-52
2021/04/16 08:33:40;;;;;;;2.42;1.07;;;;;;;9.67;42.91;96307.86;1695586;83;21087;-52
2021/04/16 08:36:33;;;;;;;0.78;0.78;;;;;;;9.61;43.01;96311.73;1679470;84;22438;-52
2021/04/16 08:39:07;;;;;;;2.75;1.80;;;;;;;9.58;42.89;96313.24;1716801;82;21132;-52
2021/04/16 08:41:40;;;;;;;4.12;2.17;;;;;;;9.57;42.68;96303.36;1689884;83;21530;-53
2021/04/16 08:44:10;;;;;;;3.40;3.10;;;;;;;9.38;42.88;96309.00;1647514;84;21523;-52
2021/04/16 08:46:52;;;;;;;4.67;3.70;;;;;;;9.17;44.00;96310.02;1666307;84;21100;-53
2021/04/16 08:49:34;;;;;;;5.87;4.25;;;;;;;9.20;44.14;96307.22;1669223;84;21382;-53
2021/04/16 08:52:08;;;;;;;9.40;3.62;;;;;;;9.16;43.74;96302.36;1663185;84;21168;-53
2021/04/16 08:54:36;;;;;;;4.22;3.45;;;;;;;9.02;44.44;96313.69;1677368;85;21119;-53
2021/04/16 08:57:11;;;;;;;4.95;1.82;;;;;;;9.08;45.17;96311.97;1671303;84;21167;-54
2021/04/16 09:00:11;;;;;;;1.62;1.50;;;;;;;9.12;44.28;96311.29;1662507;84;21167;-53
2021/04/16 09:02:54;;;;;;;1.82;1.72;;;;;;;8.92;43.69;96308.31;1679951;83;21367;-54
2021/04/16 09:05:31;;;;;;;2.35;2.15;;;;;;;8.63;44.80;96311.13;1683128;83;21573;-53
2021/04/16 09:10:57;;;;;;;5.05;4.65;;;;;;;8.28;45.29;96311.66;1713528;82;21096;-53
2021/04/16 09:13:48;;;;;;;2.05;1.85;;;;;;;8.06;46.04;96320.47;1717014;82;21045;-53
2021/04/16 09:16:22;;;;;;;3.42;3.12;;;;;;;7.98;46.13;96313.67;1708927;82;23583;-52
2021/04/16 09:18:53;;;;;;;1.90;1.80;;;;;;;7.90;46.21;96317.56;1715684;82;21088;-54
2021/04/16 09:21:31;;;;;;;4.10;3.80;;;;;;;7.72;46.55;96315.69;1704142;82;21108;-53
2021/04/16 09:24:05;;;;;;;3.05;1.80;;;;;;;7.62;47.31;96314.63;1704318;82;21155;-56
2021/04/16 09:26:52;;;;;;;2.45;1.60;;;;;;;7.62;47.30;96321.55;1707799;82;21096;-54
2021/04/16 09:29:33;;;;;;;1.60;1.50;;;;;;;7.67;47.54;96326.77;1673843;83;21278;-53
2021/04/16 09:32:04;;;;;;;1.62;1.45;;;;;;;7.81;46.80;96325.92;1706327;82;21596;-53
2021/04/16 09:34:49;;;;;;;1.80;1.70;;;;;;;7.90;46.21;96323.20;1696997;83;21093;-54
2021/04/16 09:37:39;;;;;;;1.77;1.67;;;;;;;7.85;46.54;96317.50;1716361;82;21129;-53
2021/04/16 09:40:23;;;;;;;1.45;1.30;;;;;;;7.81;46.73;96322.48;1645151;83;21656;-54
2021/04/16 09:43:02;;;;;;;1.80;1.70;;;;;;;7.85;46.62;96323.97;1719936;82;22296;-53
2021/04/16 09:45:38;;;;;;;1.50;1.30;;;;;;;7.89;46.74;96318.51;1723069;82;21147;-53
2021/04/16 09:48:17;;;;;;;3.60;2.42;;;;;;;7.95;46.31;96312.58;1717758;82;21132;-54
2021/04/16 09:50:51;;;;;;;2.02;1.92;;;;;;;7.97;46.70;96326.22;1718850;82;21643;-52
2021/04/16 09:53:33;;;;;;;2.20;2.10;;;;;;;8.06;46.61;96323.05;1719814;82;21116;-53
2021/04/16 09:56:10;;;;;;;2.67;1.77;;;;;;;8.18;46.30;96326.12;1724728;82;22130;-53
2021/04/16 09:58:53;;;;;;;1.98;1.87;;;;;;;8.32;45.85;96322.62;1689718;83;21131;-53
2021/04/16 10:01:22;;;;;;;2.50;1.60;;;;;;;8.34;45.69;96320.78;1712898;82;21160;-52
2021/04/16 10:04:01;;;;;;;1.40;1.30;;;;;;;8.32;46.14;96324.38;1707565;82;21136;-54
2021/04/16 10:06:43;;;;;;;1.87;1.77;;;;;;;8.43;45.72;96326.65;1709976;82;21136;-54
2021/04/16 10:09:25;;;;;;;2.67;1.60;;;;;;;8.59;45.91;96328.23;1710948;82;21263;-53
2021/04/16 10:12:02;;;;;;;1.60;1.50;;;;;;;8.67;45.78;96325.97;1703159;82;21108;-52
2021/04/16 10:14:35;;;;;;;1.45;1.30;;;;;;;8.79;44.72;96334.66;1679959;82;21229;-54
2021/04/16 10:17:17;;;;;;;2.70;1.30;;;;;;;8.76;44.45;96333.09;1707940;82;21124;-53
2021/04/16 10:19:53;;;;;;;1.75;1.65;;;;;;;8.63;45.44;96327.94;1698710;82;21589;-53
2021/04/16 10:22:29;;;;;;;2.20;1.80;;;;;;;8.67;45.16;96332.43;1669779;83;21436;-55
2021/04/16 10:26:21;;;;;;;3.52;2.45;;;;;;;8.73;45.25;96333.29;1703648;82;21173;-52
2021/04/16 10:44:06;;;;;;;1.52;1.42;;;;;;;8.25;45.33;96348.52;1755550;81;22054;-53
2021/04/16 11:12:28;;;;;;;2.10;1.80;;;;;;;9.06;44.66;96355.70;1755459;81;20232;-54
2021/04/16 12:39:39;;;;;;;2.98;2.70;;;;;;;7.53;47.62;96410.27;1780182;79;21132;-52
2021/04/16 12:42:10;;;;;;;2.42;2.22;;;;;;;7.62;47.50;96422.25;1783633;79;21597;-53
2021/04/16 12:44:48;;;;;;;3.00;2.70;;;;;;;7.63;46.93;96413.56;1764174;80;21137;-55
2021/04/16 12:47:23;;;;;;;2.42;2.20;;;;;;;7.68;46.90;96419.27;1771621;80;21070;-53
2021/04/16 12:49:52;;;;;;;3.05;2.60;;;;;;;7.77;46.78;96412.26;1778820;80;21155;-53
2021/04/16 12:52:21;;;;;;;3.80;2.15;;;;;;;7.77;46.81;96414.02;1733918;80;21180;-53
2021/04/16 12:54:50;;;;;;;2.58;2.37;;;;;;;7.66;46.73;96414.67;1779671;80;21105;-53
2021/04/16 12:57:41;;;;;;;2.37;1.90;;;;;;;7.55;47.32;96423.09;1749542;80;21192;-54
2021/04/16 13:00:23;;;;;;;4.10;2.20;;;;;;;7.53;47.12;96414.59;1764978;80;21129;-53
2021/04/16 13:03:01;;;;;;;2.47;2.15;;;;;;;7.59;47.44;96415.98;1754618;80;21154;-51
2021/04/16 13:05:32;;;;;;;3.17;2.80;;;;;;;7.76;47.14;96415.75;1775810;80;21216;-52
2021/04/16 13:07:59;;;;;;;2.70;2.50;;;;;;;7.83;46.49;96416.20;1782776;79;21156;-54
2021/04/16 13:10:27;;;;;;;3.00;2.40;;;;;;;7.75;46.84;96427.02;1785633;80;21082;-52
2021/04/16 13:12:56;;;;;;;3.47;2.30;;;;;;;7.76;47.30;96431.25;1766819;80;21060;-53
2021/04/16 13:15:24;;;;;;;6.00;2.58;;;;;;;7.79;46.76;96418.15;1779096;80;22125;-53
2021/04/16 13:17:59;;;;;;;3.42;2.60;;;;;;;7.80;47.29;96430.15;1781823;80;21113;-52
2021/04/16 13:20:28;;;;;;;3.45;2.45;;;;;;;7.89;47.32;96432.17;1773268;80;21075;-53
2021/04/16 13:22:55;;;;;;;2.70;2.47;;;;;;;7.96;47.12;96422.72;1775062;80;21060;-54
2021/04/16 13:25:27;;;;;;;2.60;2.40;;;;;;;8.01;46.41;96415.06;1740617;82;21071;-53
2021/04/16 13:27:55;;;;;;;2.47;2.27;;;;;;;7.98;46.71;96424.77;1767778;80;22062;-54
2021/04/16 13:30:27;;;;;;;1.92;1.80;;;;;;;7.90;46.57;96418.31;1755872;80;21126;-53
2021/04/16 13:32:58;;;;;;;2.50;2.30;;;;;;;7.84;46.37;96427.73;1769103;80;21057;-53
2021/04/16 13:35:34;;;;;;;3.08;1.90;;;;;;;7.83;47.11;96419.63;1777644;80;21107;-53
2021/04/16 13:38:06;;;;;;;4.67;2.02;;;;;;;7.82;46.74;96424.89;1766846;80;21075;-53
2021/04/16 13:40:34;;;;;;;2.40;2.20;;;;;;;7.89;46.54;96432.61;1779944;80;21551;-53
2021/04/16 13:43:03;;;;;;;;;;;;;;;7.95;46.88;96432.23;1743642;82;21082;-53
2021/04/16 13:45:31;;;;;;;4.65;2.02;;;;;;;8.02;46.05;96424.94;1716577;82;20225;-52
2021/04/16 13:48:00;;;;;;;5.10;2.50;;;;;;;7.94;45.69;96429.28;1786172;80;21188;-54
2021/04/16 13:50:29;;;;;;;4.03;2.22;;;;;;;7.76;46.71;96422.68;1783644;80;21117;-53
2021/04/16 13:52:57;;;;;;;3.55;2.10;;;;;;;7.64;46.82;96424.27;1779475;80;21410;-52
2021/04/16 13:55:25;;;;;;;7.85;2.20;;;;;;;7.63;46.74;96432.48;1776509;80;21208;-53
2021/04/16 13:57:53;;;;;;;2.62;2.08;;;;;;;7.62;46.65;96433.40;1779906;80;21038;-52
2021/04/16 14:00:25;;;;;;;2.42;2.22;;;;;;;7.61;46.61;96435.61;1781360;80;21144;-52
2021/04/16 14:02:57;;;;;;;4.03;2.87;;;;;;;7.65;47.23;96433.22;1781729;80;21570;-53
2021/04/16 14:05:28;;;;;;;5.05;2.80;;;;;;;7.64;46.47;96434.60;1760172;80;21200;-52
2021/04/16 14:08:01;;;;;;;2.92;2.62;;;;;;;7.48;47.06;96435.98;1736454;82;21612;-52
2021/04/16 14:10:30;;;;;;;2.30;2.10;;;;;;;7.37;47.54;96436.65;1773363;80;21642;-55
2021/04/16 14:12:57;;;;;;;4.83;2.42;;;;;;;7.27;47.09;96446.69;1782799;80;26444;-53
2021/04/16 14:15:25;;;;;;;4.10;2.15;;;;;;;7.19;47.61;96441.98;1783464;80;21037;-51
2021/04/16 14:17:57;;;;;;;3.30;2.52;;;;;;;7.19;48.05;96438.11;1778068;80;21274;-52
2021/04/16 14:20:40;;;;;;;2.58;2.37;;;;;;;7.21;47.91;96448.34;1761666;80;21169;-54